Sullivan, Missouri
Current Conditions -  °F | °C
As of 12:15 PM on Thursday 30 Oct 2014 (Local Time) from KFYG Reporting Station
Few Clouds Few Clouds  
Wind Chill: 54°   Ceiling: Unl
Heat Index: 54°   Visibility: 10mi
Dew Point: 39°   Wind: 7mph
Humidity: 58%   Direction: 140°SE
Pressure: 30.08"   Gusts: NA
Location:  38.21°N, 91.16°W
Report Text: KFYG 301715Z AUTO 14006KT 10SM FEW110 12/04 A3008 RMK AO2
Loading
Personal Weather Stations






























Interactive Weather Map
Tropical Storm Tracking
New forecast layout! Learn more

10-Day Weather Forecast

Advertisements
Track Severe Weather on mobile